sensor_id;sensor_type;location;lat;lon;timestamp;P1;durP1;ratioP1;P2;durP2;ratioP2
63581;SDS011;49727;51.078;17.066;2024-01-07T00:08:53;16.20;;;6.55;;
63581;SDS011;49727;51.078;17.066;2024-01-07T00:23:53;11.02;;;5.80;;
63581;SDS011;49727;51.078;17.066;2024-01-07T00:38:53;10.45;;;6.35;;
63581;SDS011;49727;51.078;17.066;2024-01-07T00:53:53;11.57;;;4.93;;
63581;SDS011;49727;51.078;17.066;2024-01-07T01:08:54;8.73;;;5.75;;
63581;SDS011;49727;51.078;17.066;2024-01-07T01:23:54;9.50;;;5.68;;
63581;SDS011;49727;51.078;17.066;2024-01-07T01:38:54;8.35;;;4.53;;
63581;SDS011;49727;51.078;17.066;2024-01-07T01:53:54;11.25;;;4.90;;
63581;SDS011;49727;51.078;17.066;2024-01-07T02:08:57;11.65;;;5.43;;
63581;SDS011;49727;51.078;17.066;2024-01-07T02:23:58;9.35;;;5.15;;
63581;SDS011;49727;51.078;17.066;2024-01-07T02:38:58;9.40;;;5.03;;
63581;SDS011;49727;51.078;17.066;2024-01-07T02:53:58;9.50;;;4.82;;
63581;SDS011;49727;51.078;17.066;2024-01-07T03:08:59;10.20;;;5.43;;
63581;SDS011;49727;51.078;17.066;2024-01-07T03:23:59;12.18;;;5.85;;
63581;SDS011;49727;51.078;17.066;2024-01-07T03:38:59;9.75;;;5.20;;
63581;SDS011;49727;51.078;17.066;2024-01-07T03:54:00;10.70;;;5.80;;
63581;SDS011;49727;51.078;17.066;2024-01-07T04:09:00;9.48;;;4.93;;
63581;SDS011;49727;51.078;17.066;2024-01-07T04:24:01;10.80;;;5.10;;
63581;SDS011;49727;51.078;17.066;2024-01-07T04:39:01;10.65;;;5.40;;
63581;SDS011;49727;51.078;17.066;2024-01-07T04:54:02;7.95;;;4.53;;
63581;SDS011;49727;51.078;17.066;2024-01-07T05:09:02;7.78;;;4.55;;
63581;SDS011;49727;51.078;17.066;2024-01-07T05:24:02;8.25;;;4.10;;
63581;SDS011;49727;51.078;17.066;2024-01-07T05:39:03;6.53;;;3.97;;
63581;SDS011;49727;51.078;17.066;2024-01-07T05:54:04;6.68;;;4.38;;
63581;SDS011;49727;51.078;17.066;2024-01-07T06:09:04;6.88;;;3.97;;
63581;SDS011;49727;51.078;17.066;2024-01-07T06:24:04;4.65;;;3.60;;
63581;SDS011;49727;51.078;17.066;2024-01-07T06:39:05;6.70;;;3.55;;
63581;SDS011;49727;51.078;17.066;2024-01-07T06:54:05;5.00;;;3.30;;
63581;SDS011;49727;51.078;17.066;2024-01-07T07:09:05;4.63;;;2.70;;
63581;SDS011;49727;51.078;17.066;2024-01-07T07:24:06;7.53;;;3.25;;
63581;SDS011;49727;51.078;17.066;2024-01-07T07:39:06;5.15;;;2.72;;
63581;SDS011;49727;51.078;17.066;2024-01-07T07:54:06;4.00;;;2.05;;
63581;SDS011;49727;51.078;17.066;2024-01-07T08:09:07;4.00;;;2.05;;
63581;SDS011;49727;51.078;17.066;2024-01-07T08:24:07;3.95;;;2.67;;
63581;SDS011;49727;51.078;17.066;2024-01-07T08:39:07;3.65;;;2.58;;
63581;SDS011;49727;51.078;17.066;2024-01-07T08:54:08;4.38;;;2.75;;
63581;SDS011;49727;51.078;17.066;2024-01-07T09:09:08;3.90;;;2.78;;
63581;SDS011;49727;51.078;17.066;2024-01-07T09:24:10;4.93;;;3.30;;
63581;SDS011;49727;51.078;17.066;2024-01-07T09:39:10;5.72;;;3.13;;
63581;SDS011;49727;51.078;17.066;2024-01-07T09:54:11;6.13;;;3.35;;
63581;SDS011;49727;51.078;17.066;2024-01-07T10:09:15;6.50;;;3.00;;
63581;SDS011;49727;51.078;17.066;2024-01-07T10:24:15;6.55;;;3.33;;
63581;SDS011;49727;51.078;17.066;2024-01-07T10:39:16;6.88;;;3.25;;
63581;SDS011;49727;51.078;17.066;2024-01-07T10:54:16;4.43;;;2.78;;
63581;SDS011;49727;51.078;17.066;2024-01-07T11:09:33;6.65;;;3.40;;
63581;SDS011;49727;51.078;17.066;2024-01-07T11:24:38;6.70;;;3.90;;
63581;SDS011;49727;51.078;17.066;2024-01-07T11:39:39;8.82;;;4.20;;
63581;SDS011;49727;51.078;17.066;2024-01-07T11:54:42;11.03;;;4.67;;
63581;SDS011;49727;51.078;17.066;2024-01-07T12:09:43;11.50;;;4.55;;
63581;SDS011;49727;51.078;17.066;2024-01-07T12:24:43;7.88;;;4.63;;
63581;SDS011;49727;51.078;17.066;2024-01-07T12:39:44;7.68;;;4.68;;
63581;SDS011;49727;51.078;17.066;2024-01-07T12:54:44;8.18;;;5.13;;
63581;SDS011;49727;51.078;17.066;2024-01-07T13:09:45;10.13;;;5.60;;
63581;SDS011;49727;51.078;17.066;2024-01-07T13:24:45;10.80;;;5.22;;
63581;SDS011;49727;51.078;17.066;2024-01-07T13:39:46;8.90;;;5.05;;
63581;SDS011;49727;51.078;17.066;2024-01-07T13:54:46;7.97;;;5.05;;
63581;SDS011;49727;51.078;17.066;2024-01-07T14:09:47;14.85;;;5.93;;
63581;SDS011;49727;51.078;17.066;2024-01-07T14:24:48;16.23;;;5.28;;
63581;SDS011;49727;51.078;17.066;2024-01-07T14:39:49;12.00;;;5.60;;
63581;SDS011;49727;51.078;17.066;2024-01-07T14:54:49;13.60;;;5.65;;
63581;SDS011;49727;51.078;17.066;2024-01-07T15:09:49;11.05;;;6.07;;
63581;SDS011;49727;51.078;17.066;2024-01-07T15:24:49;9.15;;;5.35;;
63581;SDS011;49727;51.078;17.066;2024-01-07T15:39:50;13.65;;;6.70;;
63581;SDS011;49727;51.078;17.066;2024-01-07T15:54:51;12.50;;;7.57;;
63581;SDS011;49727;51.078;17.066;2024-01-07T16:09:51;14.25;;;8.82;;
63581;SDS011;49727;51.078;17.066;2024-01-07T16:24:52;20.13;;;8.05;;
63581;SDS011;49727;51.078;17.066;2024-01-07T16:39:52;17.48;;;9.68;;
63581;SDS011;49727;51.078;17.066;2024-01-07T16:54:52;23.02;;;8.75;;
63581;SDS011;49727;51.078;17.066;2024-01-07T17:09:52;10.75;;;7.55;;
63581;SDS011;49727;51.078;17.066;2024-01-07T17:24:53;18.25;;;8.88;;
63581;SDS011;49727;51.078;17.066;2024-01-07T17:39:53;19.17;;;10.50;;
63581;SDS011;49727;51.078;17.066;2024-01-07T17:54:54;12.55;;;7.40;;
63581;SDS011;49727;51.078;17.066;2024-01-07T18:09:56;13.85;;;8.02;;
63581;SDS011;49727;51.078;17.066;2024-01-07T18:24:56;14.25;;;7.13;;
63581;SDS011;49727;51.078;17.066;2024-01-07T18:39:56;15.80;;;8.18;;
63581;SDS011;49727;51.078;17.066;2024-01-07T18:54:57;15.55;;;7.65;;
63581;SDS011;49727;51.078;17.066;2024-01-07T19:09:58;12.27;;;8.05;;
63581;SDS011;49727;51.078;17.066;2024-01-07T19:24:58;11.88;;;6.82;;
63581;SDS011;49727;51.078;17.066;2024-01-07T19:40:00;18.02;;;7.70;;
63581;SDS011;49727;51.078;17.066;2024-01-07T19:55:01;10.50;;;6.55;;
63581;SDS011;49727;51.078;17.066;2024-01-07T20:10:02;16.45;;;9.07;;
63581;SDS011;49727;51.078;17.066;2024-01-07T20:25:04;10.32;;;7.28;;
63581;SDS011;49727;51.078;17.066;2024-01-07T20:40:08;18.50;;;8.82;;
63581;SDS011;49727;51.078;17.066;2024-01-07T20:55:09;21.85;;;10.45;;
63581;SDS011;49727;51.078;17.066;2024-01-07T21:10:09;15.18;;;8.73;;
63581;SDS011;49727;51.078;17.066;2024-01-07T21:25:10;19.85;;;9.30;;
63581;SDS011;49727;51.078;17.066;2024-01-07T21:40:13;16.03;;;9.00;;
63581;SDS011;49727;51.078;17.066;2024-01-07T21:55:15;15.63;;;8.25;;
63581;SDS011;49727;51.078;17.066;2024-01-07T22:10:15;19.15;;;9.38;;
63581;SDS011;49727;51.078;17.066;2024-01-07T22:25:15;13.68;;;7.95;;
63581;SDS011;49727;51.078;17.066;2024-01-07T22:40:16;15.35;;;8.48;;
63581;SDS011;49727;51.078;17.066;2024-01-07T22:55:16;13.43;;;8.07;;
63581;SDS011;49727;51.078;17.066;2024-01-07T23:10:16;19.95;;;9.38;;
63581;SDS011;49727;51.078;17.066;2024-01-07T23:25:17;12.77;;;8.05;;
63581;SDS011;49727;51.078;17.066;2024-01-07T23:40:17;14.52;;;9.07;;
63581;SDS011;49727;51.078;17.066;2024-01-07T23:55:17;16.80;;;10.25;;
